Sunday, April 22, 2018, 9:34 PM EDT
Back to Local

KBID, Block Island, Block Island State Airport

Location: Block Island, RI, United States Lat: 41.167
Local Time: 9:34 PM EDT ( 1:34 GMT) Lon: -71.567
Time Zone: US/Eastern Elev: 108 ft

Show me the last for .
Show Coded

Time T Td Feel RH Dir Speed Gust Alt SLP Vis Weather Sky Remarks
2018-04-22 20:56 45 35 37 68 250° 16 22 30.37 30.38 10 CLR None
2018-04-22 19:56 46 34 40 62 240° 14 - 30.34 30.36 10 CLR 6-hr Min Temp (8pm): 46.0°F
6-hr Max Temp (8pm): 55.9°F
2018-04-22 18:56 49 31 43 49 230° 17 - 30.33 30.34 10 CLR None
2018-04-22 17:56 51 32 - 47 230° 17 - 30.32 30.34 10 CLR None
2018-04-22 16:56 52 31 - 44 230° 21 28 30.33 30.34 10 CLR None
2018-04-22 15:56 54 28 - 36 220° 15 22 30.33 30.34 10 CLR None
2018-04-22 14:56 54 28 - 36 220° 16 - 30.34 30.35 10 CLR None
2018-04-22 13:56 56 25 - 30 220° 13 - 30.35 30.37 10 CLR 6-hr Min Temp (2pm): 46.9°F
6-hr Max Temp (2pm): 57.0°F
2018-04-22 12:56 56 21 - 25 250° 13 - 30.36 30.38 10 CLR None
2018-04-22 11:56 55 19 - 24 250° 14 - 30.38 30.40 10 CLR None
2018-04-22 10:56 53 26 - 34 260° 7 - 30.38 30.39 10 CLR None
2018-04-22 09:56 52 26 - 36 300° 7 - 30.38 30.40 10 CLR None
2018-04-22 08:56 48 24 45 38 330° 6 - 30.38 30.40 10 CLR None
2018-04-22 07:56 47 23 43 38 330° 8 - 30.38 30.39 10 CLR 6-hr Min Temp (8am): 41.0°F
6-hr Max Temp (8am): 46.9°F
2018-04-22 06:56 44 26 40 48 340° 7 - 30.36 30.37 10 CLR None
2018-04-22 05:56 41 28 37 59 330° 6 - 30.35 30.36 10 CLR None
2018-04-22 04:56 41 29 38 61 340° 5 - 30.34 30.35 10 CLR None
2018-04-22 02:56 43 28 39 55 320° 7 - 30.33 30.34 10 CLR None
2018-04-22 01:56 44 29 40 55 320° 7 - 30.32 30.33 10 CLR 6-hr Min Temp (2am): 43.0°F
6-hr Max Temp (2am): 46.0°F
2018-04-22 00:56 45 31 42 57 300° 6 - 30.32 30.33 10 CLR None
2018-04-21 23:56 43 36 38 76 270° 9 - 30.31 30.32 10 CLR 24-hr Min Temp (12am): 37.0°F
24-hr Max Temp (12am): 53.1°F
2018-04-21 22:56 43 37 37 79 250° 12 - 30.31 30.32 10 CLR None
2018-04-21 21:56 43 38 37 82 240° 12 - 30.30 30.31 10 CLR None

Support USWX by starting your Amazon purchase here.